Time;durP1;ratioP1;P1;durP2;ratioP2;P2;SDS_P1;SDS_P2;PMS_P1;PMS_P2;Temp;Humidity;BMP_temperature;BMP_pressure;BME280_temperature;BME280_humidity;BME280_pressure;Samples;Min_cycle;Max_cycle;Signal;HPM_P1;HPM_P2
2022/08/29 00:00:18;;;;;;;8.77;5.10;;;18.80;1.00;;;;;;5043511;28;20414;-73
2022/08/29 00:02:45;;;;;;;7.40;4.53;;;18.80;1.00;;;;;;5047279;28;20690;-73
2022/08/29 00:05:10;;;;;;;9.60;3.30;;;18.80;1.00;;;;;;5050594;28;20917;-73
2022/08/29 00:07:36;;;;;;;10.00;4.30;;;18.90;1.00;;;;;;5041746;28;20495;-72
2022/08/29 00:10:03;;;;;;;8.70;4.47;;;19.00;1.00;;;;;;5050725;28;20184;-73
2022/08/29 00:12:28;;;;;;;10.00;4.37;;;19.10;1.00;;;;;;5049416;28;20255;-73
2022/08/29 00:14:55;;;;;;;12.43;4.80;;;19.00;1.00;;;;;;5048936;28;20871;-73
2022/08/29 00:17:20;;;;;;;7.23;4.53;;;19.00;1.00;;;;;;5049459;28;20179;-73
2022/08/29 00:19:46;;;;;;;14.73;5.27;;;18.90;1.00;;;;;;5047468;28;20424;-73
2022/08/29 00:22:11;;;;;;;7.60;4.80;;;18.70;1.00;;;;;;5044501;28;20544;-73
2022/08/29 00:24:37;;;;;;;7.30;4.57;;;18.60;1.00;;;;;;5050148;28;20251;-73
2022/08/29 00:27:03;;;;;;;8.33;4.90;;;18.60;1.00;;;;;;5047880;28;20539;-73
2022/08/29 00:29:28;;;;;;;9.30;4.80;;;18.40;1.00;;;;;;5050414;28;20169;-73
2022/08/29 00:31:54;;;;;;;10.33;5.00;;;18.50;1.00;;;;;;5042638;28;20247;-73
2022/08/29 00:34:19;;;;;;;10.83;4.63;;;18.40;1.00;;;;;;5041356;28;20568;-73
2022/08/29 00:36:45;;;;;;;7.67;4.53;;;18.40;1.00;;;;;;5046626;28;20547;-73
2022/08/29 00:39:11;;;;;;;9.63;4.73;;;18.30;1.00;;;;;;5050488;28;20172;-73
2022/08/29 00:41:36;;;;;;;6.60;4.97;;;18.30;1.00;;;;;;5052367;28;20185;-73
2022/08/29 00:44:03;;;;;;;7.43;5.00;;;18.30;1.00;;;;;;5047456;28;20600;-73
2022/08/29 00:46:46;;;;;;;9.80;4.90;;;18.30;1.00;;;;;;5049868;28;20201;-73
2022/08/29 00:49:26;;;;;;;7.90;5.60;;;18.20;1.00;;;;;;5048134;28;20435;-73
2022/08/29 00:51:53;;;;;;;7.70;5.50;;;18.10;1.00;;;;;;5044873;28;20471;-73
2022/08/29 00:54:21;;;;;;;9.03;5.40;;;18.00;1.00;;;;;;5048843;28;21008;-73
2022/08/29 00:56:46;;;;;;;9.77;5.70;;;17.80;1.00;;;;;;5050043;28;20802;-73
2022/08/29 00:59:22;;;;;;;10.13;6.53;;;17.60;1.00;;;;;;5045367;28;20438;-73
2022/08/29 01:01:48;;;;;;;9.47;5.40;;;17.50;1.00;;;;;;5040129;28;20627;-73
2022/08/29 01:04:14;;;;;;;7.37;5.50;;;17.50;1.00;;;;;;5044582;28;20494;-73
2022/08/29 01:06:40;;;;;;;11.87;5.70;;;17.40;1.00;;;;;;5048400;28;20659;-73
2022/08/29 01:09:07;;;;;;;11.50;5.90;;;17.40;1.00;;;;;;5049774;28;20422;-73
2022/08/29 01:14:19;;;;;;;9.00;5.07;;;17.30;1.00;;;;;;5039281;28;20507;-73
2022/08/29 01:16:47;;;;;;;7.07;4.90;;;17.20;1.00;;;;;;5047565;28;20442;-73
2022/08/29 01:19:44;;;;;;;7.27;4.97;;;17.20;1.00;;;;;;5043073;28;20407;-73
2022/08/29 01:22:28;;;;;;;7.97;4.97;;;17.20;1.00;;;;;;5041780;28;20485;-73
2022/08/29 01:24:57;;;;;;;8.53;5.77;;;17.20;1.00;;;;;;5046375;28;20451;-73
2022/08/29 01:27:28;;;;;;;9.83;5.10;;;17.10;1.00;;;;;;5046047;28;20865;-73
2022/08/29 01:29:54;;;;;;;7.73;4.97;;;17.10;1.00;;;;;;5049456;28;20412;-73
2022/08/29 01:32:21;;;;;;;7.33;4.87;;;17.00;1.00;;;;;;5040320;28;20549;-73
2022/08/29 01:34:46;;;;;;;5.80;4.77;;;16.90;1.00;;;;;;5040433;28;20276;-73
2022/08/29 01:37:14;;;;;;;9.40;5.13;;;16.90;1.00;;;;;;5048012;28;20431;-73
2022/08/29 01:39:43;;;;;;;7.27;5.30;;;16.80;1.00;;;;;;5044007;28;20264;-73
2022/08/29 01:42:21;;;;;;;8.83;5.40;;;16.80;1.00;;;;;;5042528;28;20722;-73
2022/08/29 01:44:52;;;;;;;8.60;4.87;;;16.70;1.00;;;;;;5038663;28;20451;-73
2022/08/29 01:47:19;;;;;;;9.23;5.13;;;16.70;1.00;;;;;;5046664;28;20436;-73
2022/08/29 01:49:44;;;;;;;7.03;4.80;;;16.70;1.00;;;;;;5040360;28;20474;-73
2022/08/29 01:52:11;;;;;;;8.57;4.90;;;16.70;1.00;;;;;;5043350;28;20490;-73
2022/08/29 01:54:38;;;;;;;8.00;5.33;;;16.60;1.00;;;;;;5048525;28;20202;-73
2022/08/29 01:57:04;;;;;;;6.80;5.00;;;16.70;1.00;;;;;;5049298;28;20504;-73
2022/08/29 01:59:30;;;;;;;6.70;5.00;;;16.60;1.00;;;;;;5046632;28;20423;-73
2022/08/29 02:02:07;;;;;;;13.43;5.00;;;16.60;1.00;;;;;;5039752;28;20209;-73
2022/08/29 02:04:34;;;;;;;12.10;5.40;;;16.50;1.00;;;;;;5047644;28;20469;-73
2022/08/29 02:06:59;;;;;;;9.50;5.00;;;16.50;1.00;;;;;;5047671;28;20553;-73
2022/08/29 02:09:26;;;;;;;8.13;5.07;;;16.50;1.00;;;;;;5047632;28;21027;-73
2022/08/29 02:11:53;;;;;;;11.50;5.13;;;16.50;1.00;;;;;;5048952;28;20318;-73
2022/08/29 02:14:19;;;;;;;9.97;5.40;;;16.50;1.00;;;;;;5040203;28;20979;-73
2022/08/29 02:16:44;;;;;;;9.20;5.20;;;16.50;1.00;;;;;;5046472;28;20423;-73
2022/08/29 02:19:10;;;;;;;7.17;5.03;;;16.50;1.00;;;;;;5042424;28;20192;-73
2022/08/29 02:21:35;;;;;;;8.97;4.87;;;16.40;1.00;;;;;;5039461;28;20178;-73
2022/08/29 02:24:04;;;;;;;8.90;4.90;;;16.40;1.00;;;;;;5046534;28;20201;-73
2022/08/29 02:26:30;;;;;;;8.13;4.90;;;16.30;1.00;;;;;;5047578;28;20536;-73
2022/08/29 02:28:56;;;;;;;10.57;5.40;;;16.30;1.00;;;;;;5046093;28;20454;-73
2022/08/29 02:31:23;;;;;;;8.23;4.77;;;16.10;1.00;;;;;;5049930;28;20679;-73
2022/08/29 02:33:48;;;;;;;8.37;4.83;;;16.10;1.00;;;;;;5050264;28;20960;-73
2022/08/29 02:36:14;;;;;;;8.47;4.90;;;16.10;1.00;;;;;;5052760;28;20438;-73
2022/08/29 02:38:40;;;;;;;7.20;4.70;;;16.10;1.00;;;;;;5045777;28;20568;-73
2022/08/29 02:41:06;;;;;;;9.83;5.40;;;16.20;1.00;;;;;;5050458;28;20547;-72
2022/08/29 02:43:32;;;;;;;7.70;4.67;;;17.80;1.00;;;;;;5048883;28;20694;-73
2022/08/29 02:45:58;;;;;;;5.97;4.33;;;16.10;1.00;;;;;;5051798;28;20427;-73
2022/08/29 02:48:25;;;;;;;7.47;4.67;;;16.00;1.00;;;;;;5050420;28;20457;-73
2022/08/29 02:50:53;;;;;;;14.33;5.07;;;16.00;1.00;;;;;;5046586;28;20555;-73
2022/08/29 02:53:23;;;;;;;7.33;4.40;;;16.00;1.00;;;;;;5054084;28;20930;-73
2022/08/29 02:55:50;;;;;;;9.90;5.30;;;16.00;1.00;;;;;;5048592;28;20417;-73
2022/08/29 02:58:17;;;;;;;11.23;4.90;;;16.00;1.00;;;;;;5051000;28;20529;-73
2022/08/29 03:00:42;;;;;;;10.10;4.77;;;16.00;1.00;;;;;;5051022;28;20787;-73
2022/08/29 03:03:08;;;;;;;7.33;4.40;;;15.90;1.00;;;;;;5047280;28;20435;-73
2022/08/29 03:05:35;;;;;;;6.30;4.50;;;15.80;1.00;;;;;;5046767;28;20687;-73
2022/08/29 03:08:04;;;;;;;6.83;4.20;;;15.80;1.00;;;;;;5033329;28;20959;-73
2022/08/29 03:10:29;;;;;;;11.33;5.10;;;15.70;1.00;;;;;;5051537;28;20451;-73
2022/08/29 03:12:55;;;;;;;8.73;4.53;;;15.80;1.00;;;;;;5050606;28;20556;-72
2022/08/29 03:15:21;;;;;;;6.13;4.20;;;15.80;1.00;;;;;;5049669;28;20193;-73
2022/08/29 03:17:47;;;;;;;8.53;4.20;;;15.80;1.00;;;;;;5049894;28;20173;-73
2022/08/29 03:20:15;;;;;;;6.60;4.10;;;15.70;1.00;;;;;;5042847;28;20424;-73
2022/08/29 03:22:40;;;;;;;8.23;3.80;;;15.70;1.00;;;;;;5057110;28;20486;-73
2022/08/29 03:25:07;;;;;;;9.83;4.60;;;15.70;1.00;;;;;;5043624;28;20524;-73
2022/08/29 03:27:33;;;;;;;7.33;4.97;;;15.80;1.00;;;;;;5051621;28;20668;-73
2022/08/29 03:29:59;;;;;;;6.63;4.03;;;15.70;1.00;;;;;;5048849;28;20419;-73
2022/08/29 03:32:26;;;;;;;6.20;4.27;;;15.70;1.00;;;;;;5050231;28;20451;-73
2022/08/29 03:34:53;;;;;;;8.43;4.90;;;15.70;1.00;;;;;;5049586;28;20216;-73
2022/08/29 03:37:19;;;;;;;6.40;4.27;;;15.60;1.00;;;;;;5051775;28;20462;-73
2022/08/29 03:39:44;;;;;;;8.90;4.60;;;15.50;1.00;;;;;;5045455;28;20435;-72
2022/08/29 03:42:10;;;;;;;11.63;5.07;;;15.50;1.00;;;;;;5050216;28;20737;-73
2022/08/29 03:44:38;;;;;;;7.17;4.37;;;15.40;1.00;;;;;;5041272;28;20201;-73
2022/08/29 03:47:05;;;;;;;7.07;4.50;;;15.20;1.00;;;;;;5049878;28;20183;-73
2022/08/29 03:49:31;;;;;;;9.40;5.13;;;15.20;1.00;;;;;;5043088;28;20852;-73
2022/08/29 03:51:57;;;;;;;10.23;5.07;;;15.20;1.00;;;;;;5053361;28;20910;-73
2022/08/29 03:54:23;;;;;;;4.67;4.10;;;15.20;1.00;;;;;;5054706;28;20955;-73
2022/08/29 03:56:49;;;;;;;9.73;4.27;;;15.20;1.00;;;;;;5051226;28;20404;-73
2022/08/29 03:59:16;;;;;;;5.90;4.57;;;15.20;1.00;;;;;;5048908;28;20173;-73
2022/08/29 04:01:42;;;;;;;6.40;5.10;;;15.20;1.00;;;;;;5040613;28;20278;-73
2022/08/29 04:04:07;;;;;;;6.37;4.40;;;15.10;1.00;;;;;;5045559;28;21202;-73
2022/08/29 04:06:33;;;;;;;8.10;4.30;;;15.10;1.00;;;;;;5044126;28;20617;-73
2022/08/29 04:08:59;;;;;;;6.73;4.57;;;15.00;1.00;;;;;;5050650;28;20176;-73
2022/08/29 04:11:27;;;;;;;10.67;4.57;;;15.00;1.00;;;;;;5045655;28;20201;-73
2022/08/29 04:13:53;;;;;;;10.67;4.50;;;15.00;1.00;;;;;;5045524;28;20453;-73
2022/08/29 04:16:25;;;;;;;6.53;4.50;;;14.90;1.00;;;;;;5047276;28;20419;-73
2022/08/29 04:18:51;;;;;;;8.23;4.13;;;14.90;1.00;;;;;;5047566;28;20464;-72
2022/08/29 04:21:17;;;;;;;7.17;4.60;;;14.80;1.00;;;;;;5038812;28;20416;-73
2022/08/29 04:23:44;;;;;;;6.27;4.60;;;14.80;1.00;;;;;;5042951;28;20213;-72
2022/08/29 04:26:16;;;;;;;5.60;4.07;;;14.80;1.00;;;;;;5050409;28;20407;-73
2022/08/29 04:28:41;;;;;;;12.30;5.23;;;14.70;1.00;;;;;;5045383;28;20455;-73
2022/08/29 04:31:20;;;;;;;8.13;4.57;;;14.70;1.00;;;;;;5049263;28;20459;-73
2022/08/29 04:33:47;;;;;;;5.40;4.10;;;14.80;1.00;;;;;;5044438;28;20220;-73
2022/08/29 04:36:13;;;;;;;9.20;4.90;;;14.90;1.00;;;;;;5049960;28;20805;-73
2022/08/29 04:38:39;;;;;;;7.13;4.37;;;14.90;1.00;;;;;;5043082;28;20446;-73
2022/08/29 04:41:06;;;;;;;6.17;4.57;;;14.90;1.00;;;;;;5043093;28;20273;-72
2022/08/29 04:43:32;;;;;;;7.87;4.70;;;14.90;1.00;;;;;;5041996;28;20542;-73
2022/08/29 04:45:57;;;;;;;7.63;4.63;;;14.90;1.00;;;;;;5041796;28;20867;-73
2022/08/29 04:48:23;;;;;;;9.97;5.10;;;14.90;1.00;;;;;;5045344;28;20208;-73
2022/08/29 04:51:00;;;;;;;8.73;4.50;;;14.80;1.00;;;;;;5044220;28;20807;-73
2022/08/29 04:53:27;;;;;;;8.47;4.60;;;14.80;1.00;;;;;;5049887;28;20446;-73
2022/08/29 04:56:00;;;;;;;6.07;4.33;;;14.80;1.00;;;;;;5047016;28;20491;-73
2022/08/29 04:58:25;;;;;;;10.00;4.60;;;14.70;1.00;;;;;;5050196;28;20502;-73
2022/08/29 05:00:51;;;;;;;7.50;4.57;;;14.80;1.00;;;;;;5047322;28;20457;-73
2022/08/29 05:03:18;;;;;;;8.60;4.13;;;14.80;1.00;;;;;;5048023;28;20177;-73
2022/08/29 05:05:44;;;;;;;11.07;5.10;;;14.90;1.00;;;;;;5031947;28;20169;-73
2022/08/29 05:08:09;;;;;;;6.50;3.80;;;14.90;1.00;;;;;;5042885;28;20863;-73
2022/08/29 05:10:36;;;;;;;14.20;4.20;;;14.90;1.00;;;;;;5038790;28;20716;-73
2022/08/29 05:13:02;;;;;;;8.70;4.63;;;15.00;1.00;;;;;;5049497;28;20196;-73
2022/08/29 05:15:27;;;;;;;8.20;4.30;;;15.10;1.00;;;;;;5038724;28;20810;-73
2022/08/29 05:17:53;;;;;;;10.77;4.50;;;15.10;1.00;;;;;;5047534;28;20191;-73
2022/08/29 05:20:19;;;;;;;9.30;4.60;;;15.00;1.00;;;;;;5048941;28;20173;-73
2022/08/29 05:22:45;;;;;;;11.20;4.73;;;15.10;1.00;;;;;;5057510;28;20412;-72
2022/08/29 05:25:12;;;;;;;6.00;4.40;;;15.10;1.00;;;;;;5050352;28;20192;-73
2022/08/29 05:27:39;;;;;;;10.30;4.70;;;15.20;1.00;;;;;;5046098;28;20604;-73
2022/08/29 05:30:05;;;;;;;10.40;4.90;;;15.20;1.00;;;;;;5036909;28;20439;-73
2022/08/29 05:32:31;;;;;;;10.80;5.10;;;15.20;1.00;;;;;;5043302;28;20554;-73
2022/08/29 05:34:57;;;;;;;8.10;4.80;;;15.30;1.00;;;;;;5048263;28;21041;-73
2022/08/29 05:37:24;;;;;;;10.10;4.40;;;15.40;1.00;;;;;;5046290;28;20652;-73
2022/08/29 05:39:50;;;;;;;6.83;4.00;;;15.50;1.00;;;;;;5040172;28;20427;-73
2022/08/29 05:42:18;;;;;;;14.10;5.00;;;15.50;1.00;;;;;;5049011;28;20279;-72
2022/08/29 05:44:44;;;;;;;14.77;4.80;;;15.60;1.00;;;;;;5042919;28;20266;-73
2022/08/29 05:47:12;;;;;;;7.30;4.20;;;15.80;1.00;;;;;;5047741;28;20796;-73
2022/08/29 05:49:39;;;;;;;15.70;4.50;;;16.00;1.00;;;;;;5043303;28;21085;-73
2022/08/29 05:52:05;;;;;;;8.37;4.30;;;16.00;1.00;;;;;;5054670;28;20459;-73
2022/08/29 05:54:33;;;;;;;9.67;4.43;;;16.10;1.00;;;;;;5063458;28;20804;-73
2022/08/29 05:56:59;;;;;;;11.73;4.50;;;16.20;1.00;;;;;;5069035;28;20509;-72
2022/08/29 05:59:24;;;;;;;8.03;3.97;;;16.30;1.00;;;;;;5042454;28;20515;-73
2022/08/29 06:01:50;;;;;;;8.00;3.93;;;16.40;1.00;;;;;;5040860;28;20571;-73
2022/08/29 06:04:15;;;;;;;11.27;4.73;;;16.60;1.00;;;;;;5043081;28;20202;-73
2022/08/29 06:06:41;;;;;;;8.03;4.13;;;16.80;1.00;;;;;;5045552;28;20180;-72
2022/08/29 06:09:07;;;;;;;11.47;3.83;;;17.00;1.00;;;;;;5047037;28;20234;-73
2022/08/29 06:11:33;;;;;;;8.50;4.30;;;17.20;1.00;;;;;;5041806;28;20213;-73
2022/08/29 06:14:00;;;;;;;8.47;3.47;;;17.40;1.00;;;;;;5047682;28;20446;-73
2022/08/29 06:16:28;;;;;;;5.90;3.47;;;17.60;1.00;;;;;;5039052;28;20235;-75
2022/08/29 06:18:54;;;;;;;8.33;4.33;;;17.80;1.00;;;;;;5046061;28;20436;-73
2022/08/29 06:21:20;;;;;;;8.30;4.17;;;18.00;1.00;;;;;;5045881;28;20465;-73
2022/08/29 06:23:48;;;;;;;10.53;4.53;;;18.20;1.00;;;;;;5045397;28;20728;-73
2022/08/29 06:26:14;;;;;;;8.10;4.73;;;18.30;1.00;;;;;;5046531;28;20937;-73
2022/08/29 06:28:44;;;;;;;8.63;4.90;;;18.30;1.00;;;;;;5037951;28;20478;-73
2022/08/29 06:31:25;;;;;;;13.30;4.73;;;18.40;1.00;;;;;;5044487;28;20550;-73
2022/08/29 06:33:53;;;;;;;8.97;4.30;;;18.40;1.00;;;;;;5046043;28;20435;-73
2022/08/29 06:36:19;;;;;;;10.27;5.20;;;18.60;1.00;;;;;;5048555;28;20944;-73
2022/08/29 06:38:44;;;;;;;6.50;4.27;;;18.70;1.00;;;;;;5048862;28;20419;-73
2022/08/29 06:41:14;;;;;;;8.50;4.50;;;18.90;1.00;;;;;;5040279;28;20235;-73
2022/08/29 06:43:40;;;;;;;10.47;4.40;;;19.00;1.00;;;;;;5046131;28;20265;-73
2022/08/29 06:46:07;;;;;;;12.40;4.50;;;19.10;1.00;;;;;;5038102;28;20424;-73
2022/08/29 06:48:32;;;;;;;7.43;4.50;;;19.20;1.00;;;;;;5028557;28;20197;-73
2022/08/29 06:51:02;;;;;;;9.10;4.30;;;19.50;1.00;;;;;;5035072;28;20463;-72
2022/08/29 06:53:28;;;;;;;9.88;3.88;;;19.70;1.00;;;;;;5054825;28;20560;-73
2022/08/29 06:55:54;;;;;;;7.90;3.73;;;19.90;1.00;;;;;;5045495;28;20307;-72
2022/08/29 06:58:20;;;;;;;8.93;3.90;;;20.10;1.00;;;;;;5045157;28;20209;-72
2022/08/29 07:00:45;;;;;;;10.23;3.80;;;20.20;1.00;;;;;;5037992;28;20464;-72
2022/08/29 07:03:11;;;;;;;9.37;4.00;;;20.30;1.00;;;;;;5047931;28;20180;-73
2022/08/29 07:05:36;;;;;;;9.80;3.83;;;20.40;1.00;;;;;;5046427;28;20217;-73
2022/08/29 07:08:02;;;;;;;10.00;4.17;;;20.60;1.00;;;;;;5039872;28;20687;-73
2022/08/29 07:10:29;;;;;;;11.33;4.70;;;20.70;1.00;;;;;;5034920;28;21106;-72
2022/08/29 07:12:54;;;;;;;13.87;3.80;;;20.80;1.00;;;;;;5040693;28;20570;-73
2022/08/29 07:15:22;;;;;;;11.20;4.07;;;20.90;1.00;;;;;;5039738;28;20866;-75
2022/08/29 07:17:48;;;;;;;7.03;3.80;;;21.00;1.00;;;;;;5046581;28;20254;-75
2022/08/29 07:20:15;;;;;;;12.93;3.80;;;21.20;1.00;;;;;;5043949;28;20961;-75
2022/08/29 07:22:40;;;;;;;6.50;4.17;;;21.40;1.00;;;;;;5045965;28;20439;-76
2022/08/29 07:25:07;;;;;;;9.67;4.23;;;21.60;1.00;;;;;;5051682;28;20573;-75
2022/08/29 07:27:33;;;;;;;9.27;4.07;;;21.80;1.00;;;;;;5045939;28;20187;-75
2022/08/29 07:30:01;;;;;;;8.60;4.07;;;21.80;1.00;;;;;;5036977;28;20413;-75
2022/08/29 07:32:27;;;;;;;8.77;4.20;;;21.90;1.00;;;;;;5037938;28;20858;-75
2022/08/29 07:34:53;;;;;;;8.60;3.83;;;22.20;1.00;;;;;;5032409;28;20431;-75
2022/08/29 07:37:19;;;;;;;13.13;4.20;;;22.90;1.00;;;;;;5032562;28;20412;-75
2022/08/29 07:39:44;;;;;;;9.60;4.17;;;23.90;1.00;;;;;;5050178;28;20209;-75
2022/08/29 07:42:10;;;;;;;8.53;4.10;;;24.80;1.00;;;;;;5046342;28;20562;-76
2022/08/29 07:44:35;;;;;;;9.80;4.40;;;25.40;1.00;;;;;;5041016;28;20219;-75
2022/08/29 07:47:01;;;;;;;10.90;4.37;;;25.30;1.00;;;;;;5041306;28;20207;-75
2022/08/29 07:49:27;;;;;;;10.87;3.80;;;26.10;1.00;;;;;;5044434;28;20181;-76
2022/08/29 07:51:54;;;;;;;9.20;3.80;;;27.20;1.00;;;;;;5048835;28;20287;-76
2022/08/29 07:54:21;;;;;;;7.93;3.87;;;28.20;1.00;;;;;;5051804;28;20249;-74
2022/08/29 07:56:49;;;;;;;10.27;3.50;;;29.30;1.00;;;;;;5042280;28;20215;-73
2022/08/29 07:59:17;;;;;;;10.50;3.47;;;29.90;1.00;;;;;;5040830;28;20212;-74
2022/08/29 08:01:43;;;;;;;11.35;3.83;;;30.40;1.00;;;;;;5056321;28;20612;-74
2022/08/29 08:04:09;;;;;;;8.70;3.38;;;30.80;1.00;;;;;;5043295;28;20197;-74
2022/08/29 08:06:36;;;;;;;9.18;3.90;;;30.90;1.00;;;;;;5050457;28;20572;-74
2022/08/29 08:09:04;;;;;;;7.57;4.03;;;30.90;1.00;;;;;;5048136;28;20164;-74
2022/08/29 08:11:30;;;;;;;8.52;3.95;;;30.50;1.00;;;;;;5053193;28;20218;-74
2022/08/29 08:13:56;;;;;;;10.65;3.72;;;30.30;1.00;;;;;;5051680;28;20192;-74
2022/08/29 08:16:25;;;;;;;6.40;3.60;;;30.50;1.00;;;;;;5037222;28;20188;-74
2022/08/29 08:18:51;;;;;;;8.93;3.60;;;30.80;1.00;;;;;;5043918;28;20177;-74
2022/08/29 08:21:17;;;;;;;11.40;4.22;;;30.60;1.00;;;;;;5044807;28;20186;-74
2022/08/29 08:23:43;;;;;;;9.65;3.97;;;30.90;1.00;;;;;;5047259;28;20307;-74
2022/08/29 08:26:10;;;;;;;6.75;3.90;;;31.30;1.00;;;;;;5051187;28;20184;-74
2022/08/29 08:28:36;;;;;;;7.65;3.95;;;31.60;1.00;;;;;;5048507;28;20670;-74
2022/08/29 08:31:04;;;;;;;8.27;3.75;;;32.00;1.00;;;;;;5048689;28;20212;-74
2022/08/29 08:33:29;;;;;;;9.88;4.25;;;31.80;1.00;;;;;;5054761;28;20172;-74
2022/08/29 08:35:56;;;;;;;8.85;3.40;;;31.60;1.00;;;;;;5050983;28;20211;-74
2022/08/29 08:38:21;;;;;;;5.85;3.60;;;31.60;1.00;;;;;;5032452;28;20173;-74
2022/08/29 08:41:09;;;;;;;8.57;4.50;;;31.60;1.00;;;;;;5030418;28;20262;-74
2022/08/29 08:43:56;;;;;;;9.65;3.97;;;31.90;1.00;;;;;;5029291;28;20188;-73
2022/08/29 08:46:43;;;;;;;10.38;4.00;;;32.40;1.00;;;;;;5028619;28;20169;-73
2022/08/29 08:49:29;;;;;;;11.45;4.00;;;32.20;1.00;;;;;;5029258;28;20193;-74
2022/08/29 08:52:03;;;;;;;8.07;3.90;;;32.20;1.00;;;;;;5031589;28;20226;-74
2022/08/29 08:54:35;;;;;;;8.98;3.67;;;32.70;1.00;;;;;;5029054;28;20192;-74
2022/08/29 08:57:10;;;;;;;7.93;3.85;;;33.00;1.00;;;;;;5030661;28;20335;-74
2022/08/29 08:59:41;;;;;;;6.32;3.90;;;32.80;1.00;;;;;;5030797;28;20270;-74
2022/08/29 09:02:41;;;;;;;7.55;3.80;;;32.70;1.00;;;;;;5028202;28;20181;-74
2022/08/29 09:05:35;;;;;;;5.85;3.55;;;32.70;1.00;;;;;;5027089;28;20205;-74
2022/08/29 09:08:15;;;;;;;10.02;3.78;;;33.00;1.00;;;;;;5032591;28;20196;-74
2022/08/29 09:11:08;;;;;;;7.57;3.88;;;32.60;1.00;;;;;;5028839;28;20216;-74
2022/08/29 09:14:00;;;;;;;7.35;3.90;;;33.70;1.00;;;;;;5031150;28;20181;-73
2022/08/29 09:16:36;;;;;;;13.38;4.38;;;34.40;1.00;;;;;;5027552;28;20189;-74
2022/08/29 09:19:05;;;;;;;7.43;3.80;;;34.80;1.00;;;;;;5028414;28;20175;-74
2022/08/29 09:21:44;;;;;;;8.23;3.63;;;34.80;1.00;;;;;;5030096;28;20176;-74
2022/08/29 09:24:40;;;;;;;7.65;4.32;;;35.10;1.00;;;;;;5030132;28;20219;-74
2022/08/29 09:27:07;;;;;;;6.63;3.78;;;35.00;1.00;;;;;;5024872;28;20207;-74
2022/08/29 09:29:33;;;;;;;8.85;4.07;;;34.90;1.00;;;;;;5040965;28;20539;-74
2022/08/29 09:32:10;;;;;;;5.68;3.53;;;35.40;1.00;;;;;;5038052;28;20224;-74
2022/08/29 09:34:38;;;;;;;10.93;4.00;;;35.80;1.00;;;;;;5028690;28;20195;-74
2022/08/29 09:37:20;;;;;;;6.95;3.83;;;36.10;1.00;;;;;;5032381;28;20178;-74
2022/08/29 09:39:59;;;;;;;8.60;4.13;;;36.40;1.00;;;;;;5028273;28;20176;-74
2022/08/29 09:42:30;;;;;;;6.93;3.90;;;35.90;1.00;;;;;;5028799;28;20550;-74
2022/08/29 09:44:59;;;;;;;7.22;3.80;;;36.10;1.00;;;;;;5031302;28;20201;-76
2022/08/29 09:47:27;;;;;;;8.45;3.60;;;36.80;1.00;;;;;;5028696;28;20177;-75
2022/08/29 09:50:24;;;;;;;6.47;3.80;;;37.70;1.00;;;;;;5027556;28;20405;-74
2022/08/29 09:53:00;;;;;;;6.68;3.70;;;38.10;1.00;;;;;;5028495;28;20173;-74
2022/08/29 09:55:34;;;;;;;9.90;4.00;;;38.50;1.00;;;;;;5030346;28;20199;-74
2022/08/29 09:58:04;;;;;;;6.68;3.30;;;38.70;1.00;;;;;;5027851;28;20669;-74
2022/08/29 10:00:43;;;;;;;7.82;4.07;;;39.10;1.00;;;;;;5028331;28;20191;-74
2022/08/29 10:03:20;;;;;;;6.57;3.63;;;39.10;1.00;;;;;;5028290;28;20215;-74
2022/08/29 10:05:46;;;;;;;9.85;3.78;;;39.10;1.00;;;;;;5030493;28;20323;-74
2022/08/29 10:08:30;;;;;;;8.00;3.72;;;39.30;1.00;;;;;;5032766;28;20324;-74
2022/08/29 10:11:01;;;;;;;10.18;3.72;;;39.40;1.00;;;;;;5022638;28;20583;-74
2022/08/29 10:13:36;;;;;;;10.45;3.72;;;38.70;1.00;;;;;;5041179;28;20169;-74
2022/08/29 10:16:17;;;;;;;7.32;3.90;;;38.70;1.00;;;;;;5044994;28;20164;-75
2022/08/29 10:18:53;;;;;;;7.10;3.83;;;38.70;1.00;;;;;;5050055;28;20203;-74
2022/08/29 10:21:46;;;;;;;7.57;3.60;;;39.00;1.00;;;;;;5051335;28;20667;-74
2022/08/29 10:24:18;;;;;;;7.90;3.65;;;39.50;1.00;;;;;;5037652;28;20200;-74
2022/08/29 10:26:55;;;;;;;8.73;3.70;;;40.10;1.00;;;;;;5044951;28;20189;-75
2022/08/29 10:29:35;;;;;;;9.90;4.18;;;40.50;1.00;;;;;;5047995;28;20173;-75
2022/08/29 10:32:28;;;;;;;6.57;3.50;;;40.70;1.00;;;;;;5046343;28;20708;-75
2022/08/29 10:35:14;;;;;;;11.50;3.38;;;41.10;1.00;;;;;;5041172;28;20714;-74
2022/08/29 10:37:55;;;;;;;5.95;3.60;;;41.70;1.00;;;;;;5046518;28;20199;-75
2022/08/29 10:40:25;;;;;;;11.82;3.60;;;41.70;1.00;;;;;;5046516;28;20665;-75
2022/08/29 10:43:05;;;;;;;6.35;3.55;;;42.00;1.00;;;;;;5045285;28;20559;-75
2022/08/29 10:45:43;;;;;;;10.68;3.70;;;42.20;1.00;;;;;;5039024;28;20246;-75
2022/08/29 10:48:18;;;;;;;9.32;4.15;;;42.80;1.00;;;;;;5040070;28;20488;-75
2022/08/29 10:51:08;;;;;;;11.98;3.20;;;42.70;1.00;;;;;;5044007;28;20392;-75
2022/08/29 10:53:39;;;;;;;7.35;3.30;;;43.00;1.00;;;;;;5053068;28;20631;-75
2022/08/29 10:56:18;;;;;;;6.97;3.60;;;43.60;1.00;;;;;;5049080;28;20189;-75
2022/08/29 10:59:05;;;;;;;6.75;3.45;;;44.40;1.00;;;;;;5047880;28;20169;-75
2022/08/29 11:01:40;;;;;;;6.10;3.03;;;44.40;1.00;;;;;;5045871;28;20188;-75
2022/08/29 11:04:16;;;;;;;7.18;3.40;;;44.60;1.00;;;;;;5049158;28;20195;-75
2022/08/29 11:07:01;;;;;;;6.95;3.28;;;44.10;1.00;;;;;;5044492;28;20173;-75
2022/08/29 11:09:51;;;;;;;6.57;3.35;;;43.50;1.00;;;;;;5052768;28;20176;-75
2022/08/29 11:12:40;;;;;;;10.02;3.38;;;42.50;1.00;;;;;;5044564;28;20257;-75
2022/08/29 11:15:29;;;;;;;9.00;3.35;;;42.30;1.00;;;;;;5036442;28;20540;-74
2022/08/29 11:17:58;;;;;;;7.47;3.40;;;43.00;1.00;;;;;;5048721;28;20184;-75
2022/08/29 11:20:30;;;;;;;7.13;3.40;;;43.80;1.00;;;;;;5042388;28;20245;-75
2022/08/29 11:23:08;;;;;;;6.18;3.15;;;44.20;1.00;;;;;;5038629;28;20539;-75
2022/08/29 11:25:35;;;;;;;6.10;3.50;;;44.80;1.00;;;;;;5040103;28;20196;-75
2022/08/29 11:28:19;;;;;;;10.02;3.33;;;45.30;1.00;;;;;;5036459;28;20185;-75
2022/08/29 11:31:01;;;;;;;6.68;3.40;;;45.40;1.00;;;;;;5047769;28;20265;-75
2022/08/29 11:33:47;;;;;;;10.05;3.55;;;45.10;1.00;;;;;;5036778;28;20173;-75
2022/08/29 11:36:43;;;;;;;12.38;3.40;;;44.80;1.00;;;;;;5037823;28;20172;-75
2022/08/29 11:39:29;;;;;;;6.50;3.55;;;44.50;1.00;;;;;;5045742;28;20626;-75
2022/08/29 11:41:59;;;;;;;9.93;3.30;;;44.10;1.00;;;;;;5051520;28;20185;-75
2022/08/29 11:44:48;;;;;;;7.38;3.25;;;44.80;1.00;;;;;;5038267;28;20274;-75
2022/08/29 11:47:46;;;;;;;8.07;3.50;;;45.00;1.00;;;;;;5045464;28;20181;-75
2022/08/29 11:50:28;;;;;;;7.43;3.38;;;45.30;1.00;;;;;;5040926;28;20488;-75
2022/08/29 11:53:01;;;;;;;8.10;3.20;;;46.00;1.00;;;;;;5052908;28;20184;-75
2022/08/29 11:55:32;;;;;;;11.98;3.65;;;46.40;1.00;;;;;;5047432;28;20188;-75
2022/08/29 11:58:19;;;;;;;7.68;3.38;;;46.40;1.00;;;;;;5043943;28;20173;-75
2022/08/29 12:00:55;;;;;;;6.15;3.50;;;45.70;1.00;;;;;;5041155;28;20754;-75
2022/08/29 12:03:33;;;;;;;7.57;3.47;;;45.80;1.00;;;;;;5046491;28;20231;-75
2022/08/29 12:06:17;;;;;;;8.98;3.40;;;46.40;1.00;;;;;;5043224;28;20204;-75
2022/08/29 12:08:56;;;;;;;7.15;3.80;;;46.10;1.00;;;;;;5048571;28;20196;-75
2022/08/29 12:11:57;;;;;;;7.50;3.40;;;45.70;1.00;;;;;;5047408;28;20769;-75
2022/08/29 12:14:49;;;;;;;8.10;3.58;;;46.40;1.00;;;;;;5033739;28;20208;-75
2022/08/29 12:17:23;;;;;;;7.82;3.45;;;46.00;1.00;;;;;;5045887;28;20210;-75
2022/08/29 12:20:12;;;;;;;5.93;3.35;;;46.10;1.00;;;;;;5044536;28;20597;-75
2022/08/29 12:22:50;;;;;;;6.53;3.20;;;45.10;1.00;;;;;;5049859;28;20187;-75
2022/08/29 12:25:50;;;;;;;9.00;3.63;;;45.10;1.00;;;;;;5039733;28;20200;-75
2022/08/29 12:28:31;;;;;;;5.78;3.70;;;45.70;1.00;;;;;;5044692;28;20197;-75
2022/08/29 12:30:57;;;;;;;7.00;3.33;;;46.00;1.00;;;;;;5047280;28;20203;-75
2022/08/29 12:33:53;;;;;;;5.35;3.47;;;45.40;1.00;;;;;;5046761;28;20182;-75
2022/08/29 12:36:24;;;;;;;5.22;3.60;;;44.90;1.00;;;;;;5045486;28;20547;-75
2022/08/29 12:39:12;;;;;;;6.63;3.55;;;45.10;1.00;;;;;;5039379;28;20192;-75
2022/08/29 12:41:47;;;;;;;9.48;3.45;;;45.20;1.00;;;;;;5048089;28;20196;-75
2022/08/29 12:44:15;;;;;;;7.03;3.50;;;44.40;1.00;;;;;;5042453;28;20262;-75
2022/08/29 12:46:43;;;;;;;7.75;3.45;;;44.20;1.00;;;;;;5043741;28;20185;-75
2022/08/29 12:49:15;;;;;;;7.75;3.38;;;44.20;1.00;;;;;;5047759;28;20203;-75
2022/08/29 12:51:42;;;;;;;6.57;3.28;;;44.60;1.00;;;;;;5048409;28;20239;-75
2022/08/29 12:54:11;;;;;;;6.28;3.78;;;44.90;1.00;;;;;;5040252;28;20220;-75
2022/08/29 12:56:48;;;;;;;24.00;3.95;;;45.40;1.00;;;;;;5050771;28;20180;-75
2022/08/29 12:59:17;;;;;;;7.93;3.45;;;44.90;1.00;;;;;;5049219;28;20208;-75
2022/08/29 13:01:48;;;;;;;6.05;3.63;;;45.20;1.00;;;;;;5048824;28;20677;-75
2022/08/29 13:04:17;;;;;;;5.28;3.38;;;45.60;1.00;;;;;;5043488;28;20324;-75
2022/08/29 13:06:55;;;;;;;5.57;3.65;;;46.70;1.00;;;;;;5042490;28;20173;-75
2022/08/29 13:09:38;;;;;;;9.77;3.78;;;45.10;1.00;;;;;;5034120;28;20184;-75
2022/08/29 13:12:32;;;;;;;7.82;3.70;;;44.50;1.00;;;;;;5042691;28;20592;-75
2022/08/29 13:15:07;;;;;;;5.63;3.50;;;44.20;1.00;;;;;;5037293;28;20199;-75
2022/08/29 13:17:38;;;;;;;6.70;3.78;;;43.60;1.00;;;;;;5050761;28;20168;-75